Time;durP1;ratioP1;P1;durP2;ratioP2;P2;SDS_P1;SDS_P2;PMS_P1;PMS_P2;Temp;Humidity;BMP_temperature;BMP_pressure;BME280_temperature;BME280_humidity;BME280_pressure;Samples;Min_cycle;Max_cycle;Signal;HPM_P1;HPM_P2
2021/03/29 00:01:50;;;;;;;68.47;35.90;;;5.60;88.10;;;;;;5053993;28;20047;-85
2021/03/29 00:04:16;;;;;;;58.38;33.35;;;5.60;87.40;;;;;;5054062;28;20049;-85
2021/03/29 00:06:43;;;;;;;63.03;38.72;;;5.60;87.20;;;;;;5054053;28;20028;-85
2021/03/29 00:09:10;;;;;;;61.75;33.83;;;5.70;88.20;;;;;;5055068;28;20021;-85
2021/03/29 00:11:38;;;;;;;61.38;34.83;;;5.70;87.40;;;;;;5053742;28;20021;-85
2021/03/29 00:14:06;;;;;;;70.30;39.80;;;5.60;87.50;;;;;;5055149;28;20074;-86
2021/03/29 00:16:32;;;;;;;71.13;38.25;;;5.60;88.30;;;;;;5053677;28;20036;-85
2021/03/29 00:18:58;;;;;;;79.30;43.55;;;5.50;88.10;;;;;;5053764;28;20462;-84
2021/03/29 00:21:25;;;;;;;66.93;37.45;;;5.50;88.70;;;;;;5038464;28;20036;-85
2021/03/29 00:23:51;;;;;;;64.20;35.90;;;5.40;88.60;;;;;;5036883;28;20072;-85
2021/03/29 00:26:17;;;;;;;69.43;38.08;;;5.40;88.40;;;;;;5054247;28;20025;-85
2021/03/29 00:28:43;;;;;;;70.55;36.40;;;5.50;88.70;;;;;;5033622;28;20041;-85
2021/03/29 00:31:11;;;;;;;61.75;34.55;;;5.50;88.20;;;;;;5034811;28;20081;-85
2021/03/29 00:33:39;;;;;;;55.08;33.15;;;5.60;88.10;;;;;;5034014;28;20117;-85
2021/03/29 00:36:06;;;;;;;61.65;35.05;;;5.50;87.80;;;;;;5033581;28;20022;-85
2021/03/29 00:38:33;;;;;;;61.33;35.85;;;5.60;88.70;;;;;;5052907;28;20021;-85
2021/03/29 00:41:07;;;;;;;70.40;37.50;;;5.60;88.20;;;;;;5053437;28;20032;-85
2021/03/29 00:43:35;;;;;;;68.70;37.63;;;5.60;88.40;;;;;;5053141;28;20025;-84
2021/03/29 00:46:03;;;;;;;69.90;40.40;;;5.60;88.50;;;;;;5054320;28;20075;-85
2021/03/29 00:48:32;;;;;;;71.45;39.90;;;5.60;88.70;;;;;;5053087;28;20025;-85
2021/03/29 00:51:15;;;;;;;76.50;40.65;;;5.60;89.00;;;;;;5054464;28;20025;-85
2021/03/29 00:53:47;;;;;;;72.63;42.55;;;5.60;90.00;;;;;;5053121;28;20058;-85
2021/03/29 00:56:13;;;;;;;72.72;41.53;;;5.60;89.70;;;;;;5053196;28;20040;-84
2021/03/29 00:58:40;;;;;;;64.45;36.45;;;5.60;89.50;;;;;;5052950;28;20028;-85
2021/03/29 01:01:11;;;;;;;61.63;34.58;;;5.60;89.50;;;;;;5053176;28;20025;-85
2021/03/29 01:03:40;;;;;;;65.22;35.92;;;5.60;88.90;;;;;;5054556;28;20017;-85
2021/03/29 01:06:09;;;;;;;74.78;38.67;;;5.70;88.90;;;;;;5052861;28;20112;-85
2021/03/29 01:08:39;;;;;;;64.15;35.83;;;5.70;89.10;;;;;;5052717;28;20025;-85
2021/03/29 01:11:07;;;;;;;67.47;37.13;;;5.60;88.90;;;;;;5053434;28;20467;-84
2021/03/29 01:13:36;;;;;;;60.25;36.03;;;5.70;88.80;;;;;;5052802;28;20021;-85
2021/03/29 01:16:05;;;;;;;67.07;37.95;;;5.70;89.10;;;;;;5044235;28;20036;-85
2021/03/29 01:18:33;;;;;;;78.03;45.55;;;5.70;89.50;;;;;;5033912;28;20038;-85
2021/03/29 01:21:10;;;;;;;65.47;38.13;;;5.60;90.30;;;;;;5033778;28;20030;-84
2021/03/29 01:23:37;;;;;;;83.97;45.38;;;5.60;89.60;;;;;;5032486;28;20068;-85
2021/03/29 01:26:08;;;;;;;68.78;39.10;;;5.60;90.20;;;;;;5033597;28;20022;-85
2021/03/29 01:28:35;;;;;;;68.43;39.22;;;5.60;89.70;;;;;;5033256;28;20038;-85
2021/03/29 01:31:01;;;;;;;83.65;44.88;;;5.50;89.80;;;;;;5032608;28;20053;-86
2021/03/29 01:33:27;;;;;;;66.40;38.35;;;5.40;90.60;;;;;;5032169;28;20029;-85
2021/03/29 01:35:57;;;;;;;75.75;44.83;;;5.40;90.20;;;;;;5032476;28;20025;-85
2021/03/29 01:38:26;;;;;;;70.10;41.00;;;5.20;91.20;;;;;;5032027;28;20025;-85
2021/03/29 01:40:53;;;;;;;72.63;41.58;;;5.20;91.10;;;;;;5033652;28;20307;-85
2021/03/29 01:43:20;;;;;;;63.35;38.13;;;5.20;90.90;;;;;;5032495;28;20476;-84
2021/03/29 01:45:47;;;;;;;73.75;37.20;;;5.20;91.00;;;;;;5032066;28;20494;-85
2021/03/29 01:48:13;;;;;;;53.30;32.80;;;5.20;90.90;;;;;;5032380;28;20081;-85
2021/03/29 01:50:41;;;;;;;74.45;40.60;;;5.20;90.80;;;;;;5033476;28;20143;-85
2021/03/29 01:53:08;;;;;;;64.75;35.83;;;5.20;91.30;;;;;;5036161;28;20026;-85
2021/03/29 01:55:35;;;;;;;64.45;36.45;;;5.20;90.90;;;;;;5036119;28;20033;-85
2021/03/29 01:58:02;;;;;;;62.10;33.85;;;5.20;90.80;;;;;;5036114;28;20430;-85
2021/03/29 02:00:31;;;;;;;68.82;34.28;;;5.20;90.70;;;;;;5036059;28;20021;-85
2021/03/29 02:03:05;;;;;;;64.85;35.38;;;5.30;90.60;;;;;;5053812;28;20112;-85
2021/03/29 02:05:31;;;;;;;70.10;39.65;;;5.20;90.80;;;;;;5056100;28;20029;-84
2021/03/29 02:07:57;;;;;;;59.97;34.38;;;5.20;91.30;;;;;;5056039;28;20473;-84
2021/03/29 02:10:25;;;;;;;61.92;35.03;;;5.20;91.00;;;;;;5055852;28;20025;-85
2021/03/29 02:12:52;;;;;;;61.92;35.50;;;5.20;91.00;;;;;;5056944;28;20025;-85
2021/03/29 02:15:25;;;;;;;64.82;36.67;;;5.20;91.00;;;;;;5053256;28;20413;-84
2021/03/29 02:17:54;;;;;;;71.00;41.20;;;5.20;91.40;;;;;;5044019;28;20074;-84
2021/03/29 02:20:24;;;;;;;67.38;39.30;;;5.20;91.80;;;;;;5051870;28;20041;-85
2021/03/29 02:22:51;;;;;;;64.03;35.28;;;5.20;91.40;;;;;;5036232;28;20033;-85
2021/03/29 02:25:20;;;;;;;56.70;34.75;;;5.20;91.30;;;;;;5035922;28;20104;-85
2021/03/29 02:27:47;;;;;;;65.57;34.55;;;5.30;91.20;;;;;;5035957;28;20044;-85
2021/03/29 02:30:18;;;;;;;61.70;36.42;;;5.30;91.10;;;;;;5036878;28;20057;-85
2021/03/29 02:32:45;;;;;;;62.65;36.47;;;5.30;91.10;;;;;;5035906;28;20529;-85
2021/03/29 02:35:12;;;;;;;58.67;35.38;;;5.30;91.30;;;;;;5043255;28;20032;-85
2021/03/29 02:37:39;;;;;;;62.03;36.33;;;5.30;91.40;;;;;;5055144;28;20017;-84
2021/03/29 02:40:06;;;;;;;70.78;38.40;;;5.30;91.50;;;;;;5042770;28;20079;-85
2021/03/29 02:42:35;;;;;;;65.03;35.45;;;5.30;91.90;;;;;;5042794;28;20025;-85
2021/03/29 02:45:01;;;;;;;58.92;33.53;;;5.30;91.60;;;;;;5049443;28;20029;-85
2021/03/29 02:47:27;;;;;;;63.97;35.38;;;5.30;91.50;;;;;;5035620;28;20095;-86
2021/03/29 02:49:55;;;;;;;63.08;35.90;;;5.30;91.80;;;;;;5036851;28;20029;-85
2021/03/29 02:52:22;;;;;;;67.93;40.15;;;5.30;92.70;;;;;;5035589;28;20026;-85
2021/03/29 02:54:47;;;;;;;78.32;42.90;;;5.30;92.60;;;;;;5041959;28;20022;-85
2021/03/29 02:57:15;;;;;;;66.35;37.85;;;5.30;93.20;;;;;;5036578;28;20021;-85
2021/03/29 02:59:43;;;;;;;75.85;43.20;;;5.20;92.50;;;;;;5035295;28;20096;-85
2021/03/29 03:02:09;;;;;;;81.43;45.78;;;5.20;93.10;;;;;;5034822;28;20033;-85
2021/03/29 03:04:36;;;;;;;71.28;40.97;;;5.10;94.20;;;;;;5035211;28;20022;-85
2021/03/29 03:07:02;;;;;;;62.03;35.53;;;5.10;93.30;;;;;;5035357;28;20041;-85
2021/03/29 03:09:29;;;;;;;60.42;34.83;;;5.10;93.00;;;;;;5036300;28;20030;-84
2021/03/29 03:11:55;;;;;;;65.35;37.28;;;5.10;93.00;;;;;;5036627;28;20101;-85
2021/03/29 03:14:21;;;;;;;61.47;36.67;;;5.00;93.20;;;;;;5037882;28;20068;-85
2021/03/29 03:16:47;;;;;;;59.45;34.40;;;4.90;93.10;;;;;;5039229;28;20474;-85
2021/03/29 03:19:13;;;;;;;61.10;34.15;;;4.90;93.10;;;;;;5038276;28;20021;-85
2021/03/29 03:21:39;;;;;;;59.05;35.28;;;4.90;93.00;;;;;;5034732;28;20029;-85
2021/03/29 03:24:05;;;;;;;58.50;31.77;;;4.80;93.30;;;;;;5034942;28;20107;-84
2021/03/29 03:26:31;;;;;;;62.05;35.72;;;4.80;93.40;;;;;;5037390;28;20028;-85
2021/03/29 03:28:59;;;;;;;56.42;31.17;;;4.70;93.60;;;;;;5034414;28;20060;-85
2021/03/29 03:31:25;;;;;;;57.88;35.22;;;4.70;93.10;;;;;;5050736;28;20431;-85
2021/03/29 03:33:51;;;;;;;61.17;34.65;;;4.70;93.10;;;;;;5042766;28;20100;-84
2021/03/29 03:36:19;;;;;;;69.68;38.85;;;4.60;93.70;;;;;;5053573;28;20025;-84
2021/03/29 03:38:48;;;;;;;68.05;37.17;;;4.50;94.30;;;;;;5051977;28;20013;-84
2021/03/29 03:41:20;;;;;;;67.63;36.72;;;4.40;94.30;;;;;;5055219;28;20029;-84
2021/03/29 03:43:49;;;;;;;65.97;36.95;;;4.40;94.20;;;;;;5054027;28;20096;-84
2021/03/29 03:46:17;;;;;;;73.03;38.17;;;4.30;94.50;;;;;;5053811;28;20032;-85
2021/03/29 03:48:44;;;;;;;67.85;37.35;;;4.20;94.90;;;;;;5053978;28;20013;-85
2021/03/29 03:51:10;;;;;;;59.38;35.22;;;4.20;94.70;;;;;;5048165;28;20071;-85
2021/03/29 03:53:37;;;;;;;55.17;31.00;;;4.10;94.70;;;;;;5038728;28;20364;-86
2021/03/29 03:56:03;;;;;;;56.65;32.20;;;4.20;94.20;;;;;;5049851;28;20029;-85
2021/03/29 03:58:30;;;;;;;52.72;30.00;;;4.20;94.50;;;;;;5053870;28;20055;-85
2021/03/29 04:00:56;;;;;;;55.30;29.42;;;4.20;94.20;;;;;;5049216;28;20452;-85
2021/03/29 04:03:27;;;;;;;50.75;29.80;;;4.20;94.20;;;;;;5033579;28;20388;-84
2021/03/29 04:05:53;;;;;;;50.85;30.23;;;4.20;94.00;;;;;;5049742;28;20020;-81
2021/03/29 04:08:19;;;;;;;55.30;29.95;;;4.20;94.20;;;;;;5053094;28;20146;-82
2021/03/29 04:10:48;;;;;;;56.25;31.70;;;4.20;94.20;;;;;;5037417;28;20064;-81
2021/03/29 04:13:18;;;;;;;54.13;29.08;;;4.20;94.90;;;;;;5050194;28;20395;-82
2021/03/29 04:15:44;;;;;;;46.55;28.05;;;4.20;94.40;;;;;;5054278;28;20021;-80
2021/03/29 04:18:10;;;;;;;49.72;29.17;;;4.20;94.50;;;;;;5054062;28;20827;-81
2021/03/29 04:20:36;;;;;;;48.55;29.13;;;4.20;94.20;;;;;;5045497;28;20132;-81
2021/03/29 04:23:02;;;;;;;44.35;25.60;;;4.30;94.40;;;;;;5052228;28;20475;-81
2021/03/29 04:25:28;;;;;;;44.03;25.73;;;4.30;94.00;;;;;;5049227;28;20027;-81
2021/03/29 04:27:53;;;;;;;42.40;25.00;;;4.30;94.10;;;;;;5053243;28;20420;-81
2021/03/29 04:30:20;;;;;;;37.72;22.02;;;4.30;93.80;;;;;;5053349;28;20418;-81
2021/03/29 04:32:51;;;;;;;37.13;23.30;;;4.40;93.80;;;;;;5052999;28;20025;-81
2021/03/29 04:35:20;;;;;;;42.58;24.50;;;4.40;93.70;;;;;;5053376;28;20021;-85
2021/03/29 04:37:45;;;;;;;47.85;27.58;;;4.50;94.00;;;;;;5053485;28;20021;-84
2021/03/29 04:40:12;;;;;;;40.33;24.65;;;4.50;94.10;;;;;;5054462;28;20025;-85
2021/03/29 04:42:38;;;;;;;43.28;26.35;;;4.60;93.80;;;;;;5053971;28;20036;-84
2021/03/29 04:45:06;;;;;;;51.20;29.70;;;4.60;93.80;;;;;;5053525;28;20037;-84
2021/03/29 04:47:32;;;;;;;53.30;29.05;;;4.60;94.20;;;;;;5052623;28;20025;-85
2021/03/29 04:49:58;;;;;;;49.03;29.30;;;4.60;94.30;;;;;;5052165;28;20031;-84
2021/03/29 04:52:24;;;;;;;55.10;28.88;;;4.60;94.10;;;;;;5042999;28;20030;-84
2021/03/29 04:54:49;;;;;;;47.33;28.75;;;4.70;94.10;;;;;;5047917;28;20056;-83
2021/03/29 04:57:15;;;;;;;60.72;39.05;;;4.70;93.90;;;;;;5052579;28;20052;-84
2021/03/29 04:59:41;;;;;;;56.70;35.35;;;4.70;93.80;;;;;;5052534;28;20029;-82
2021/03/29 05:02:06;;;;;;;55.83;31.65;;;4.80;94.00;;;;;;5053264;28;20035;-81
2021/03/29 05:04:32;;;;;;;43.63;27.48;;;4.80;93.90;;;;;;5036341;28;20025;-83
2021/03/29 05:06:58;;;;;;;43.47;25.83;;;4.90;93.80;;;;;;5033007;28;20032;-83
2021/03/29 05:09:23;;;;;;;51.17;26.88;;;4.90;93.60;;;;;;5034223;28;20368;-83
2021/03/29 05:11:51;;;;;;;42.55;25.15;;;4.90;93.40;;;;;;5036336;28;20037;-84
2021/03/29 05:14:17;;;;;;;45.50;24.70;;;4.90;93.20;;;;;;5052413;28;20021;-84
2021/03/29 05:16:43;;;;;;;47.80;27.35;;;4.90;92.80;;;;;;5052674;28;20442;-84
2021/03/29 05:19:10;;;;;;;45.92;26.67;;;4.80;92.90;;;;;;5052202;28;20097;-84
2021/03/29 05:21:36;;;;;;;38.10;22.65;;;4.80;92.90;;;;;;5051996;28;20112;-83
2021/03/29 05:24:03;;;;;;;42.92;24.30;;;4.90;92.70;;;;;;5052853;28;20434;-83
2021/03/29 05:26:29;;;;;;;40.88;23.67;;;4.90;92.90;;;;;;5051806;28;20675;-83
2021/03/29 05:28:55;;;;;;;41.40;25.08;;;5.00;92.50;;;;;;5052668;28;20049;-83
2021/03/29 05:31:20;;;;;;;42.80;25.05;;;5.00;92.40;;;;;;5052734;28;20479;-84
2021/03/29 05:33:48;;;;;;;41.25;23.98;;;5.00;92.30;;;;;;5051948;28;20021;-84
2021/03/29 05:36:14;;;;;;;41.22;23.10;;;4.90;92.10;;;;;;5051838;28;20036;-84
2021/03/29 05:38:42;;;;;;;41.97;24.88;;;5.00;92.20;;;;;;5051526;28;20083;-83
2021/03/29 05:41:12;;;;;;;35.72;22.23;;;5.10;92.10;;;;;;5051441;28;20462;-84
2021/03/29 05:43:39;;;;;;;44.47;23.02;;;5.10;92.00;;;;;;5045856;28;20030;-84
2021/03/29 05:46:06;;;;;;;47.88;26.13;;;5.20;91.90;;;;;;5049021;28;20072;-83
2021/03/29 05:48:32;;;;;;;44.83;22.95;;;5.10;91.70;;;;;;5051658;28;20040;-83
2021/03/29 05:51:06;;;;;;;40.03;23.60;;;5.20;91.70;;;;;;5051838;28;20493;-84
2021/03/29 05:53:32;;;;;;;44.42;23.20;;;5.20;91.60;;;;;;5052008;28;20025;-85
2021/03/29 05:56:03;;;;;;;37.55;22.17;;;5.30;91.60;;;;;;5052944;28;20370;-84
2021/03/29 06:00:55;;;;;;;40.38;22.73;;;5.50;91.50;;;;;;5052811;28;20079;-80
2021/03/29 06:03:41;;;;;;;37.63;20.65;;;5.60;91.30;;;;;;5057108;28;20029;-86
2021/03/29 06:06:12;;;;;;;36.67;21.98;;;5.70;91.10;;;;;;5065623;28;20112;-86
2021/03/29 06:08:42;;;;;;;37.15;22.65;;;5.70;90.90;;;;;;5053969;28;20056;-88
2021/03/29 06:11:29;;;;;;;41.17;23.42;;;5.70;90.70;;;;;;5052644;28;20108;-88
2021/03/29 06:14:15;;;;;;;38.95;22.63;;;5.80;90.70;;;;;;5052867;28;20378;-89
2021/03/29 06:17:00;;;;;;;43.65;25.35;;;5.80;90.60;;;;;;5052431;28;20108;-89
2021/03/29 06:19:48;;;;;;;35.92;21.95;;;5.90;90.60;;;;;;5052385;28;20079;-85
2021/03/29 06:22:35;;;;;;;44.50;24.55;;;6.00;90.40;;;;;;5052427;28;20032;-86
2021/03/29 06:25:14;;;;;;;33.30;20.45;;;6.00;90.50;;;;;;5053490;28;20021;-87
2021/03/29 06:27:45;;;;;;;41.55;24.48;;;6.10;90.50;;;;;;5068220;28;20040;-90
2021/03/29 06:30:16;;;;;;;41.80;22.83;;;6.20;90.20;;;;;;5053428;28;20052;-90
2021/03/29 06:33:06;;;;;;;43.10;24.60;;;6.30;90.30;;;;;;5052914;28;20021;-89
2021/03/29 06:35:42;;;;;;;42.35;26.08;;;6.40;90.10;;;;;;5050840;28;20123;-90
2021/03/29 06:38:17;;;;;;;41.92;23.98;;;6.40;90.00;;;;;;5056195;28;20088;-89
2021/03/29 06:40:55;;;;;;;43.85;23.73;;;6.40;89.70;;;;;;5057716;28;20029;-89
2021/03/29 06:43:29;;;;;;;37.85;22.75;;;6.40;89.80;;;;;;5056566;28;20036;-89
2021/03/29 06:46:04;;;;;;;51.03;26.70;;;6.50;89.80;;;;;;5056253;28;20025;-89
2021/03/29 06:48:35;;;;;;;45.65;24.25;;;6.50;89.30;;;;;;5057123;28;20039;-88
2021/03/29 06:51:22;;;;;;;44.95;25.80;;;6.50;89.10;;;;;;5057189;28;20074;-89
2021/03/29 06:54:18;;;;;;;36.67;22.77;;;6.60;89.30;;;;;;5057446;28;20389;-89
2021/03/29 06:56:50;;;;;;;39.83;23.95;;;6.60;88.50;;;;;;5049975;28;20142;-88
2021/03/29 06:59:23;;;;;;;44.08;25.85;;;6.60;88.50;;;;;;5040300;28;20040;-89
2021/03/29 07:01:54;;;;;;;38.22;23.27;;;6.70;88.70;;;;;;5057000;28;20025;-89
2021/03/29 07:04:23;;;;;;;;;;;6.80;88.20;;;;;;5056658;28;20032;-89
2021/03/29 07:06:50;;;;;;;37.53;22.30;;;6.80;87.90;;;;;;5055899;28;20063;-89
2021/03/29 07:09:17;;;;;;;45.90;25.25;;;6.80;88.40;;;;;;5055760;28;20534;-89
2021/03/29 07:11:45;;;;;;;42.92;25.90;;;6.80;88.10;;;;;;5055993;28;20025;-89
2021/03/29 07:14:11;;;;;;;39.20;23.58;;;6.80;88.10;;;;;;5055967;28;20025;-89
2021/03/29 07:16:40;;;;;;;38.10;23.23;;;7.00;88.10;;;;;;5055680;28;20028;-88
2021/03/29 07:19:09;;;;;;;38.10;23.08;;;7.00;87.50;;;;;;5054693;28;20087;-88
2021/03/29 07:21:35;;;;;;;42.83;26.00;;;7.10;87.10;;;;;;5054118;28;20055;-89
2021/03/29 07:24:07;;;;;;;46.35;28.85;;;7.10;87.30;;;;;;5055069;28;20032;-89
2021/03/29 07:26:42;;;;;;;49.45;28.30;;;7.10;87.30;;;;;;5054910;28;20124;-89
2021/03/29 07:29:26;;;;;;;45.40;27.95;;;7.10;86.90;;;;;;5053501;28;20052;-89
2021/03/29 07:31:57;;;;;;;42.72;26.75;;;7.10;86.30;;;;;;5055227;28;20032;-90
2021/03/29 07:34:49;;;;;;;43.78;26.00;;;7.30;86.60;;;;;;5053763;28;20013;-89
2021/03/29 07:37:41;;;;;;;40.90;24.38;;;7.40;86.60;;;;;;5054733;28;20108;-90
2021/03/29 07:40:33;;;;;;;52.40;29.33;;;7.50;86.10;;;;;;5053529;28;20111;-90
2021/03/29 07:43:16;;;;;;;39.10;25.13;;;7.40;85.70;;;;;;5053942;28;20021;-89
2021/03/29 07:45:51;;;;;;;41.97;25.15;;;7.50;86.20;;;;;;5054691;28;20033;-88
2021/03/29 07:48:35;;;;;;;51.35;29.75;;;7.60;86.10;;;;;;5056013;28;20449;-90
2021/03/29 07:51:11;;;;;;;46.28;27.63;;;7.70;85.60;;;;;;5053782;28;20497;-90
2021/03/29 07:53:51;;;;;;;45.25;26.63;;;7.70;85.30;;;;;;5071729;28;20090;-89
2021/03/29 07:56:35;;;;;;;49.88;31.10;;;7.80;85.50;;;;;;5053393;28;20067;-89
2021/03/29 07:59:06;;;;;;;46.13;27.60;;;7.90;84.90;;;;;;5053196;28;20127;-89
2021/03/29 08:02:01;;;;;;;42.28;27.13;;;7.90;84.40;;;;;;5054243;28;20047;-90
2021/03/29 08:05:05;;;;;;;38.72;24.08;;;8.00;84.20;;;;;;5054211;28;20075;-89
2021/03/29 08:07:45;;;;;;;38.42;22.02;;;8.20;84.80;;;;;;5053279;28;20116;-88
2021/03/29 08:10:13;;;;;;;40.20;26.10;;;8.30;85.00;;;;;;5053037;28;20139;-89
2021/03/29 08:12:58;;;;;;;45.55;28.92;;;8.40;84.40;;;;;;5054086;28;20025;-89
2021/03/29 08:15:44;;;;;;;42.67;24.83;;;8.60;84.40;;;;;;5053823;28;20017;-89
2021/03/29 08:18:09;;;;;;;43.90;25.10;;;8.70;84.00;;;;;;5053159;28;20033;-89
2021/03/29 08:20:44;;;;;;;36.30;23.83;;;8.80;83.60;;;;;;5055455;28;20025;-89
2021/03/29 08:23:31;;;;;;;38.17;24.58;;;8.80;82.90;;;;;;5054309;28;20029;-89
2021/03/29 08:26:17;;;;;;;49.90;27.83;;;8.90;82.10;;;;;;5054432;28;20115;-88
2021/03/29 08:29:11;;;;;;;38.38;23.55;;;9.00;82.50;;;;;;5054035;28;20041;-88
2021/03/29 08:32:04;;;;;;;40.00;24.88;;;9.10;82.30;;;;;;5055737;28;20021;-88
2021/03/29 08:34:42;;;;;;;45.55;26.95;;;9.20;81.80;;;;;;5054381;28;20083;-88
2021/03/29 08:37:09;;;;;;;44.08;25.90;;;9.30;81.60;;;;;;5055186;28;20040;-89
2021/03/29 08:39:47;;;;;;;35.10;22.85;;;9.40;82.20;;;;;;5054163;28;20489;-88
2021/03/29 08:42:15;;;;;;;38.60;24.83;;;9.50;81.40;;;;;;5054208;28;20037;-88
2021/03/29 08:44:43;;;;;;;35.85;22.38;;;9.50;81.30;;;;;;5054175;28;20423;-88
2021/03/29 08:47:18;;;;;;;42.65;24.50;;;9.60;81.70;;;;;;5055030;28;20021;-89
2021/03/29 08:49:45;;;;;;;40.22;25.48;;;9.70;80.80;;;;;;5053936;28;20029;-88
2021/03/29 08:52:12;;;;;;;38.42;23.13;;;9.70;80.90;;;;;;5053840;28;20421;-88
2021/03/29 08:54:51;;;;;;;31.83;21.52;;;9.90;81.60;;;;;;5053984;28;20028;-88
2021/03/29 08:57:17;;;;;;;37.90;22.63;;;10.00;81.50;;;;;;5053836;28;20056;-88
2021/03/29 08:59:42;;;;;;;35.67;23.77;;;10.20;81.10;;;;;;5053235;28;20029;-88
2021/03/29 09:02:17;;;;;;;36.53;21.92;;;10.30;80.00;;;;;;5053673;28;20025;-88
2021/03/29 09:04:58;;;;;;;36.00;24.13;;;10.40;80.30;;;;;;5053652;28;20501;-88
2021/03/29 09:07:41;;;;;;;42.05;24.40;;;10.60;78.70;;;;;;5054831;28;20024;-88
2021/03/29 09:10:35;;;;;;;41.72;25.10;;;10.60;79.00;;;;;;5054703;28;20471;-88
2021/03/29 09:13:02;;;;;;;42.15;23.23;;;10.70;79.40;;;;;;5053734;28;20123;-88
2021/03/29 09:15:36;;;;;;;34.33;23.63;;;10.70;78.80;;;;;;5054494;28;20091;-88
2021/03/29 09:18:08;;;;;;;30.70;20.92;;;10.80;79.00;;;;;;5053011;28;20399;-88
2021/03/29 09:20:37;;;;;;;32.28;21.88;;;10.90;79.40;;;;;;5051435;28;20053;-88
2021/03/29 09:23:03;;;;;;;31.08;20.20;;;11.00;78.60;;;;;;5051835;28;20545;-88
2021/03/29 09:25:35;;;;;;;30.63;20.23;;;11.10;78.50;;;;;;5052568;28;20133;-88
2021/03/29 09:28:18;;;;;;;27.63;19.33;;;11.10;77.70;;;;;;5051894;28;20025;-88
2021/03/29 09:30:47;;;;;;;31.77;19.00;;;11.30;78.30;;;;;;5051703;28;20037;-87
2021/03/29 09:33:14;;;;;;;30.13;19.25;;;11.30;78.10;;;;;;5052230;28;20079;-86
2021/03/29 09:35:40;;;;;;;30.08;19.65;;;11.40;77.50;;;;;;5052141;28;20082;-88
2021/03/29 09:38:05;;;;;;;32.10;20.38;;;11.40;76.40;;;;;;5071574;28;20037;-87
2021/03/29 09:40:36;;;;;;;35.45;19.00;;;11.50;76.60;;;;;;5052478;28;20029;-87
2021/03/29 09:43:02;;;;;;;;;;;11.60;76.80;;;;;;5051941;28;20021;-88
2021/03/29 09:45:31;;;;;;;25.52;16.35;;;11.70;73.80;;;;;;5051521;28;19905;-87
2021/03/29 09:48:07;;;;;;;25.85;17.40;;;11.80;75.90;;;;;;5052516;28;20025;-87
2021/03/29 09:50:45;;;;;;;24.63;16.95;;;11.80;75.30;;;;;;5052871;28;20036;-87
2021/03/29 09:53:24;;;;;;;27.80;16.15;;;11.80;72.70;;;;;;5051147;28;20021;-87
2021/03/29 09:55:55;;;;;;;25.43;15.17;;;11.90;74.60;;;;;;5051599;28;20382;-88
2021/03/29 09:58:22;;;;;;;26.42;16.20;;;12.00;74.50;;;;;;5052619;28;20029;-87
2021/03/29 10:00:49;;;;;;;34.50;15.05;;;12.00;72.40;;;;;;5051323;28;20029;-88
2021/03/29 10:03:17;;;;;;;22.85;13.93;;;12.10;72.10;;;;;;5051347;28;20021;-88
2021/03/29 10:05:43;;;;;;;19.52;13.50;;;12.10;73.00;;;;;;5051238;28;20051;-87
2021/03/29 10:08:09;;;;;;;22.45;14.52;;;12.10;73.30;;;;;;5051434;28;20482;-87
2021/03/29 10:10:34;;;;;;;21.30;13.77;;;12.10;70.70;;;;;;5051051;28;20522;-87
2021/03/29 10:13:14;;;;;;;17.65;12.82;;;12.20;72.30;;;;;;5056228;28;20024;-86
2021/03/29 10:15:41;;;;;;;20.60;13.75;;;12.30;72.20;;;;;;5055175;28;20116;-87
2021/03/29 10:18:12;;;;;;;27.10;14.38;;;12.40;71.60;;;;;;5055384;28;20023;-88
2021/03/29 10:20:43;;;;;;;18.67;13.10;;;12.40;70.40;;;;;;5057639;28;20391;-87
2021/03/29 10:23:29;;;;;;;21.75;12.57;;;12.40;70.40;;;;;;5063153;28;20025;-87
2021/03/29 10:26:18;;;;;;;21.23;12.65;;;12.50;69.60;;;;;;5057774;28;20029;-87
2021/03/29 10:29:01;;;;;;;26.95;13.30;;;12.50;67.60;;;;;;5056361;28;20056;-88
2021/03/29 10:31:29;;;;;;;24.02;14.55;;;12.60;68.00;;;;;;5056418;28;20479;-88
2021/03/29 10:33:56;;;;;;;18.95;13.07;;;12.60;69.00;;;;;;5056741;28;20086;-88
2021/03/29 10:36:23;;;;;;;18.20;12.13;;;12.70;69.90;;;;;;5056053;28;20022;-87
2021/03/29 10:38:49;;;;;;;17.13;12.20;;;12.80;70.10;;;;;;5057484;28;20546;-88
2021/03/29 10:41:15;;;;;;;15.50;10.93;;;12.80;69.10;;;;;;5056406;28;20031;-89
2021/03/29 10:43:41;;;;;;;17.25;11.75;;;12.80;68.50;;;;;;5056285;28;20098;-88
2021/03/29 10:46:07;;;;;;;17.52;11.57;;;12.80;68.20;;;;;;5057239;28;20474;-88
2021/03/29 10:48:33;;;;;;;18.52;11.25;;;12.80;68.80;;;;;;5056181;28;20425;-89
2021/03/29 10:51:00;;;;;;;17.60;10.80;;;12.90;67.60;;;;;;5056334;28;20032;-87
2021/03/29 10:53:26;;;;;;;18.73;11.80;;;12.90;67.50;;;;;;5056287;28;20108;-89
2021/03/29 10:55:52;;;;;;;20.98;11.65;;;13.00;67.80;;;;;;5056101;28;20052;-88
2021/03/29 10:58:18;;;;;;;12.25;9.20;;;13.20;67.80;;;;;;5055846;28;20059;-89
2021/03/29 11:00:43;;;;;;;14.50;9.32;;;13.30;67.30;;;;;;5057164;28;20079;-89
2021/03/29 11:03:09;;;;;;;13.05;9.20;;;13.40;66.30;;;;;;5057272;28;20131;-89
2021/03/29 11:05:35;;;;;;;15.90;9.10;;;13.40;64.70;;;;;;5055886;28;20475;-88
2021/03/29 11:08:00;;;;;;;11.95;8.45;;;13.40;64.60;;;;;;5055898;28;20056;-89
2021/03/29 11:10:26;;;;;;;10.20;8.02;;;13.40;64.20;;;;;;5057384;28;20032;-90
2021/03/29 11:12:52;;;;;;;14.95;9.00;;;13.40;62.40;;;;;;5055976;28;20021;-87
2021/03/29 11:15:17;;;;;;;12.95;8.68;;;13.40;61.40;;;;;;5057309;28;20108;-86
2021/03/29 11:17:43;;;;;;;14.18;9.43;;;13.40;60.50;;;;;;5055482;28;20107;-88
2021/03/29 11:20:09;;;;;;;12.45;7.75;;;13.40;60.40;;;;;;5067450;28;20032;-88
2021/03/29 11:22:35;;;;;;;14.10;7.85;;;13.50;61.30;;;;;;5060401;28;20060;-87
2021/03/29 11:25:01;;;;;;;9.63;7.70;;;13.60;61.80;;;;;;5053624;28;20031;-85
2021/03/29 11:27:27;;;;;;;12.18;8.23;;;13.60;61.60;;;;;;5053537;28;20111;-86
2021/03/29 11:29:52;;;;;;;12.13;7.47;;;13.70;61.30;;;;;;5054064;28;20053;-86
2021/03/29 11:32:18;;;;;;;10.60;7.95;;;13.80;61.00;;;;;;5053570;28;20437;-87
2021/03/29 11:34:44;;;;;;;12.23;7.65;;;13.80;60.20;;;;;;5053330;28;20037;-86
2021/03/29 11:37:10;;;;;;;13.52;7.95;;;13.90;59.80;;;;;;5054873;28;20105;-86
2021/03/29 11:39:36;;;;;;;9.85;6.60;;;13.90;58.90;;;;;;5053320;28;20036;-86
2021/03/29 11:42:02;;;;;;;12.02;6.72;;;13.90;59.60;;;;;;5053319;28;20033;-87
2021/03/29 11:44:28;;;;;;;11.68;7.45;;;14.00;58.90;;;;;;5053317;28;20032;-87
2021/03/29 11:46:54;;;;;;;9.68;6.90;;;14.00;56.80;;;;;;5053336;28;20024;-86
2021/03/29 11:49:19;;;;;;;10.25;6.60;;;14.00;54.90;;;;;;5053409;28;20025;-87
2021/03/29 11:51:45;;;;;;;16.10;8.20;;;14.10;55.60;;;;;;5052925;28;20115;-86
2021/03/29 11:54:11;;;;;;;10.30;6.88;;;14.10;54.20;;;;;;5053237;28;20025;-87
2021/03/29 11:56:37;;;;;;;10.13;6.90;;;14.10;54.60;;;;;;5054109;28;20017;-87
2021/03/29 11:59:03;;;;;;;10.93;6.63;;;14.20;55.00;;;;;;5053048;28;20041;-87
2021/03/29 12:01:49;;;;;;;10.23;6.82;;;14.30;55.20;;;;;;5052863;28;20060;-87
2021/03/29 12:06:51;;;;;;;70.22;48.13;;;14.40;53.80;;;;;;5053913;28;20036;-87
2021/03/29 12:12:13;;;;;;;9.73;6.43;;;14.50;51.30;;;;;;5051793;28;20026;-87
2021/03/29 12:14:40;;;;;;;8.30;5.60;;;14.60;51.30;;;;;;5052731;28;20092;-88
2021/03/29 12:17:08;;;;;;;12.70;6.15;;;14.70;51.20;;;;;;5052836;28;20063;-89
2021/03/29 12:19:37;;;;;;;8.52;6.00;;;14.70;51.40;;;;;;5054271;28;20039;-90
2021/03/29 12:22:18;;;;;;;8.52;5.68;;;14.80;51.50;;;;;;5055715;28;20100;-90
2021/03/29 12:24:47;;;;;;;7.78;5.57;;;14.90;50.90;;;;;;5056536;28;20053;-90
2021/03/29 12:27:14;;;;;;;8.50;5.47;;;15.00;48.90;;;;;;5055101;28;20025;-90
2021/03/29 12:29:43;;;;;;;9.73;5.70;;;15.20;50.20;;;;;;5054038;28;20053;-90
2021/03/29 12:32:17;;;;;;;8.07;5.55;;;15.30;50.00;;;;;;5054234;28;20044;-90
2021/03/29 12:34:48;;;;;;;13.68;8.30;;;15.40;49.50;;;;;;5054640;28;20025;-90
2021/03/29 12:37:19;;;;;;;9.77;6.20;;;15.30;46.60;;;;;;5054690;28;20167;-90
2021/03/29 12:39:51;;;;;;;9.00;5.15;;;15.50;46.80;;;;;;5055617;28;20079;-89
2021/03/29 12:42:22;;;;;;;9.18;5.18;;;15.80;47.00;;;;;;5054033;28;20036;-90
2021/03/29 12:44:48;;;;;;;11.35;5.85;;;16.00;46.50;;;;;;5054027;28;20143;-89
2021/03/29 12:47:16;;;;;;;7.20;5.00;;;16.10;42.80;;;;;;5053826;28;20498;-90
2021/03/29 12:49:42;;;;;;;8.77;5.93;;;16.50;45.30;;;;;;5055211;28;20048;-89
2021/03/29 12:52:07;;;;;;;8.27;5.68;;;16.60;43.90;;;;;;5054078;28;20474;-90
2021/03/29 12:54:35;;;;;;;9.45;5.82;;;16.50;45.00;;;;;;5053784;28;20021;-90
2021/03/29 12:57:02;;;;;;;9.30;5.63;;;16.30;42.80;;;;;;5053823;28;20031;-90
2021/03/29 12:59:29;;;;;;;8.50;5.55;;;16.00;44.10;;;;;;5053821;28;20021;-90